Time;durP1;ratioP1;P1;durP2;ratioP2;P2;SDS_P1;SDS_P2;PMS_P1;PMS_P2;Temp;Humidity;BMP_temperature;BMP_pressure;BME280_temperature;BME280_humidity;BME280_pressure;Samples;Min_cycle;Max_cycle;Signal;HPM_P1;HPM_P2
2023/05/06 00:02:10;;;;;;;15.40;11.57;;;11.60;99.90;;;;;;4974387;28;20293;-86
2023/05/06 00:04:37;;;;;;;13.10;10.83;;;11.60;99.90;;;;;;4958311;28;20042;-85
2023/05/06 00:07:02;;;;;;;13.40;11.10;;;11.60;99.90;;;;;;4977262;28;20050;-85
2023/05/06 00:09:28;;;;;;;11.10;8.53;;;11.50;99.90;;;;;;4978215;28;20369;-85
2023/05/06 00:11:54;;;;;;;10.97;8.60;;;11.50;99.90;;;;;;4978702;28;20046;-85
2023/05/06 00:14:20;;;;;;;11.67;9.03;;;11.60;99.90;;;;;;4961097;28;20106;-85
2023/05/06 00:16:45;;;;;;;10.47;8.53;;;11.60;99.90;;;;;;4978068;28;20495;-85
2023/05/06 00:19:11;;;;;;;10.50;8.07;;;11.60;99.90;;;;;;4977397;28;20133;-85
2023/05/06 00:21:37;;;;;;;10.33;8.67;;;11.60;99.90;;;;;;4978703;28;20051;-85
2023/05/06 00:24:04;;;;;;;12.57;7.60;;;11.60;99.90;;;;;;4944560;28;20046;-85
2023/05/06 00:26:29;;;;;;;10.47;8.17;;;11.70;99.90;;;;;;4978411;28;20278;-85
2023/05/06 00:28:55;;;;;;;10.47;8.30;;;11.60;99.90;;;;;;4978371;28;20284;-85
2023/05/06 00:31:21;;;;;;;10.67;8.13;;;11.70;99.90;;;;;;4977781;28;20395;-85
2023/05/06 00:33:47;;;;;;;9.97;7.77;;;11.60;99.90;;;;;;4977011;28;20059;-85
2023/05/06 00:36:12;;;;;;;10.30;8.30;;;11.70;99.90;;;;;;4976742;28;20113;-84
2023/05/06 00:38:38;;;;;;;9.80;8.20;;;11.70;99.90;;;;;;4976587;28;20065;-84
2023/05/06 00:41:05;;;;;;;9.43;7.23;;;11.70;99.90;;;;;;4976223;28;20383;-85
2023/05/06 00:43:31;;;;;;;11.30;8.70;;;11.80;99.90;;;;;;4960510;28;20305;-84
2023/05/06 00:45:56;;;;;;;10.63;7.93;;;11.80;99.90;;;;;;4976364;28;20086;-84
2023/05/06 00:48:22;;;;;;;10.23;7.80;;;11.80;99.90;;;;;;4977139;28;20049;-84
2023/05/06 00:50:48;;;;;;;11.37;8.47;;;11.80;99.90;;;;;;4978015;28;20050;-85
2023/05/06 00:53:18;;;;;;;14.70;9.63;;;11.80;99.90;;;;;;4976009;28;20483;-84
2023/05/06 00:55:43;;;;;;;10.17;8.23;;;11.90;99.90;;;;;;4977417;28;20458;-85
2023/05/06 00:58:09;;;;;;;12.03;8.97;;;11.90;99.90;;;;;;4977395;28;20313;-85
2023/05/06 01:00:35;;;;;;;13.70;9.23;;;11.80;99.90;;;;;;4976018;28;20141;-84
2023/05/06 01:03:00;;;;;;;10.80;8.60;;;11.90;99.90;;;;;;4977233;28;20054;-84
2023/05/06 01:05:34;;;;;;;11.77;8.17;;;11.90;99.90;;;;;;4977163;28;20046;-84
2023/05/06 01:08:15;;;;;;;15.13;9.00;;;11.90;99.90;;;;;;4977158;28;20097;-85
2023/05/06 01:10:59;;;;;;;11.37;8.80;;;11.90;99.90;;;;;;4976417;28;20298;-85
2023/05/06 01:13:50;;;;;;;12.77;9.47;;;11.90;99.90;;;;;;4976916;28;20298;-84
2023/05/06 01:16:19;;;;;;;11.40;9.10;;;11.90;99.90;;;;;;4974900;28;20290;-85
2023/05/06 01:18:46;;;;;;;14.03;9.57;;;11.90;99.90;;;;;;4976839;28;20314;-85
2023/05/06 01:21:12;;;;;;;13.23;9.93;;;11.80;99.90;;;;;;4976017;28;20318;-85
2023/05/06 01:23:56;;;;;;;12.00;9.50;;;11.80;99.90;;;;;;4977036;28;20901;-85
2023/05/06 01:26:23;;;;;;;11.83;9.60;;;11.80;99.90;;;;;;4976134;28;20294;-85
2023/05/06 01:28:49;;;;;;;11.47;9.10;;;11.80;99.90;;;;;;4975780;28;20278;-85
2023/05/06 01:31:28;;;;;;;11.80;9.73;;;11.80;99.90;;;;;;4977477;28;20285;-85
2023/05/06 01:34:14;;;;;;;11.17;8.33;;;11.80;99.90;;;;;;4943979;28;20336;-85
2023/05/06 01:36:58;;;;;;;13.53;9.33;;;11.80;99.90;;;;;;4975494;28;20311;-85
2023/05/06 01:39:25;;;;;;;13.27;9.00;;;11.80;99.90;;;;;;4976416;28;20293;-85
2023/05/06 01:41:54;;;;;;;11.63;9.47;;;11.80;99.90;;;;;;4976327;28;20353;-86
2023/05/06 01:44:22;;;;;;;13.90;9.47;;;11.80;99.90;;;;;;4976108;28;20779;-86
2023/05/06 01:46:50;;;;;;;10.83;9.20;;;11.80;99.90;;;;;;4975448;28;20373;-85
2023/05/06 01:49:17;;;;;;;14.10;10.43;;;11.80;99.90;;;;;;4976388;28;20278;-85
2023/05/06 01:51:47;;;;;;;11.87;9.37;;;11.80;99.90;;;;;;4976695;28;20285;-85
2023/05/06 01:54:13;;;;;;;12.80;9.50;;;11.80;99.90;;;;;;4976290;28;20275;-85
2023/05/06 01:56:39;;;;;;;11.83;9.10;;;11.80;99.90;;;;;;4975554;28;20348;-85
2023/05/06 01:59:05;;;;;;;12.10;9.80;;;11.80;99.90;;;;;;4975245;28;20701;-85
2023/05/06 02:01:31;;;;;;;12.90;9.90;;;11.70;99.90;;;;;;4959127;28;20193;-85
2023/05/06 02:03:56;;;;;;;13.63;9.87;;;11.80;99.90;;;;;;4974795;28;20388;-85
2023/05/06 02:06:22;;;;;;;12.20;9.17;;;11.70;99.90;;;;;;4975373;28;20046;-86
2023/05/06 02:08:48;;;;;;;12.37;9.53;;;11.70;99.90;;;;;;4975082;28;20161;-85
2023/05/06 02:11:14;;;;;;;13.50;9.20;;;11.60;99.90;;;;;;4975097;28;20061;-86
2023/05/06 02:13:40;;;;;;;11.93;9.60;;;11.60;99.90;;;;;;4975741;28;20359;-85
2023/05/06 02:16:06;;;;;;;12.87;9.50;;;11.70;99.90;;;;;;4975974;28;20290;-85
2023/05/06 02:18:31;;;;;;;12.27;10.07;;;11.70;99.90;;;;;;4974712;28;20047;-86
2023/05/06 02:20:57;;;;;;;13.67;9.23;;;11.60;99.90;;;;;;4976358;28;20133;-86
2023/05/06 02:23:23;;;;;;;13.13;9.50;;;11.60;99.90;;;;;;4975756;28;20121;-86
2023/05/06 02:25:49;;;;;;;11.27;8.87;;;11.60;99.90;;;;;;4974831;28;20054;-86
2023/05/06 02:28:14;;;;;;;13.50;9.10;;;11.60;99.90;;;;;;4975317;28;20507;-86
2023/05/06 02:30:40;;;;;;;12.47;9.47;;;11.60;99.90;;;;;;4975697;28;20278;-86
2023/05/06 02:33:06;;;;;;;12.37;8.87;;;11.50;99.90;;;;;;4975388;28;20125;-85
2023/05/06 02:35:31;;;;;;;10.77;9.00;;;11.50;99.90;;;;;;4975629;28;20046;-85
2023/05/06 02:37:58;;;;;;;10.63;8.73;;;11.50;99.90;;;;;;4974085;28;20078;-85
2023/05/06 02:40:24;;;;;;;11.50;9.50;;;11.40;99.90;;;;;;4975504;28;20043;-85
2023/05/06 02:42:49;;;;;;;12.37;9.17;;;11.40;99.90;;;;;;4974450;28;20639;-85
2023/05/06 02:45:15;;;;;;;10.57;8.80;;;11.30;99.90;;;;;;4975913;28;20051;-85
2023/05/06 02:47:41;;;;;;;12.00;9.20;;;11.30;99.90;;;;;;4975355;28;20046;-85
2023/05/06 02:50:07;;;;;;;12.10;9.20;;;11.30;99.90;;;;;;4974389;28;20054;-85
2023/05/06 02:52:33;;;;;;;12.63;9.10;;;11.20;99.90;;;;;;4975319;28;20053;-85
2023/05/06 02:55:00;;;;;;;13.20;9.87;;;11.20;99.90;;;;;;4975273;28;20278;-84
2023/05/06 02:57:26;;;;;;;13.80;9.63;;;11.20;99.90;;;;;;4975249;28;20320;-84
2023/05/06 02:59:51;;;;;;;10.60;8.77;;;11.20;99.90;;;;;;4975124;28;20322;-84
2023/05/06 03:02:17;;;;;;;11.30;8.60;;;11.20;99.90;;;;;;4974452;28;20082;-84
2023/05/06 03:04:43;;;;;;;11.23;9.47;;;11.10;99.90;;;;;;4974670;28;20038;-85
2023/05/06 03:07:08;;;;;;;13.73;9.40;;;11.10;99.90;;;;;;4974594;28;20105;-84
2023/05/06 03:09:34;;;;;;;10.53;8.60;;;11.10;99.90;;;;;;4974911;28;20061;-85
2023/05/06 03:12:01;;;;;;;15.63;9.77;;;11.00;99.90;;;;;;4974702;28;20487;-84
2023/05/06 03:14:26;;;;;;;11.60;8.50;;;11.00;99.90;;;;;;4974943;28;20524;-84
2023/05/06 03:16:52;;;;;;;12.87;8.93;;;11.00;99.90;;;;;;4974889;28;20292;-85
2023/05/06 03:19:18;;;;;;;13.13;9.70;;;11.00;99.90;;;;;;4974927;28;20061;-84
2023/05/06 03:21:44;;;;;;;13.00;9.20;;;11.00;99.90;;;;;;4975438;28;20054;-85
2023/05/06 03:24:10;;;;;;;13.10;9.60;;;11.00;99.90;;;;;;4974838;28;20050;-85
2023/05/06 03:26:36;;;;;;;13.07;9.63;;;10.90;99.90;;;;;;4973798;28;20047;-84
2023/05/06 03:29:01;;;;;;;11.77;9.30;;;10.90;99.90;;;;;;4957635;28;20312;-84
2023/05/06 03:31:27;;;;;;;13.30;9.70;;;11.00;99.90;;;;;;4974848;28;20038;-84
2023/05/06 03:33:53;;;;;;;12.77;10.30;;;11.00;99.90;;;;;;4974521;28;20059;-84
2023/05/06 03:36:22;;;;;;;12.67;9.50;;;10.90;99.90;;;;;;4973435;28;20051;-83
2023/05/06 03:38:48;;;;;;;11.77;9.13;;;11.00;99.90;;;;;;4974313;28;20050;-84
2023/05/06 03:41:14;;;;;;;13.07;9.03;;;10.90;99.90;;;;;;4974066;28;20284;-84
2023/05/06 03:43:39;;;;;;;12.10;9.40;;;11.00;99.90;;;;;;4973546;28;20101;-85
2023/05/06 03:46:06;;;;;;;11.97;9.07;;;10.90;99.90;;;;;;4957661;28;20057;-84
2023/05/06 03:48:32;;;;;;;11.80;8.73;;;10.90;99.90;;;;;;4973913;28;20549;-84
2023/05/06 03:50:57;;;;;;;11.07;8.80;;;10.80;99.90;;;;;;4973580;28;20286;-84
2023/05/06 03:53:24;;;;;;;11.57;9.03;;;10.80;99.90;;;;;;4974604;28;20101;-84
2023/05/06 03:55:49;;;;;;;11.13;9.50;;;10.90;99.90;;;;;;4974634;28;20047;-84
2023/05/06 03:58:15;;;;;;;14.63;9.90;;;10.80;99.90;;;;;;4973569;28;20286;-84
2023/05/06 04:00:41;;;;;;;11.67;9.83;;;10.80;99.90;;;;;;4974533;28;20050;-84
2023/05/06 04:03:06;;;;;;;11.97;9.40;;;10.90;99.90;;;;;;4973149;28;20510;-84
2023/05/06 04:05:32;;;;;;;11.47;9.53;;;10.90;99.90;;;;;;4957777;28;20101;-84
2023/05/06 04:07:58;;;;;;;12.10;9.27;;;10.90;99.90;;;;;;4974520;28;20054;-84
2023/05/06 04:10:23;;;;;;;12.37;9.83;;;10.90;99.90;;;;;;4974408;28;20145;-84
2023/05/06 04:12:49;;;;;;;12.73;9.87;;;10.90;99.90;;;;;;4974410;28;20050;-84
2023/05/06 04:15:15;;;;;;;12.37;9.40;;;10.80;99.90;;;;;;4973913;28;20097;-84
2023/05/06 04:17:40;;;;;;;15.47;10.27;;;10.90;99.90;;;;;;4974294;28;20043;-84
2023/05/06 04:20:10;;;;;;;12.63;10.03;;;10.90;99.90;;;;;;4973327;28;20049;-84
2023/05/06 04:22:37;;;;;;;15.00;9.20;;;10.90;99.90;;;;;;4973602;28;20046;-84
2023/05/06 04:25:03;;;;;;;13.03;9.47;;;11.00;99.90;;;;;;4974843;28;20306;-84
2023/05/06 04:27:30;;;;;;;13.57;10.30;;;11.00;99.90;;;;;;4973348;28;20301;-84
2023/05/06 04:29:57;;;;;;;12.00;9.23;;;11.00;99.90;;;;;;4973323;28;20294;-84
2023/05/06 04:32:26;;;;;;;14.87;9.90;;;11.00;99.90;;;;;;4974207;28;20406;-85
2023/05/06 04:34:52;;;;;;;12.47;9.27;;;11.00;99.90;;;;;;4974145;28;20283;-85
2023/05/06 04:37:19;;;;;;;12.03;9.83;;;11.10;99.90;;;;;;4972713;28;20783;-85
2023/05/06 04:39:48;;;;;;;12.13;9.87;;;11.20;99.90;;;;;;4957611;28;20688;-85
2023/05/06 04:42:15;;;;;;;12.43;8.83;;;11.20;99.90;;;;;;4972951;28;20282;-85
2023/05/06 04:44:42;;;;;;;12.23;9.33;;;11.20;99.90;;;;;;4957062;28;20302;-84
2023/05/06 04:47:08;;;;;;;12.50;9.20;;;11.20;99.90;;;;;;4973336;28;20329;-84
2023/05/06 04:49:33;;;;;;;12.63;8.87;;;11.30;99.90;;;;;;4973078;28;20790;-84
2023/05/06 04:51:59;;;;;;;13.17;9.70;;;11.30;99.90;;;;;;4975016;28;20362;-84
2023/05/06 04:54:25;;;;;;;13.43;10.00;;;11.30;99.90;;;;;;4975078;28;20546;-85
2023/05/06 04:56:51;;;;;;;14.17;10.23;;;11.40;99.90;;;;;;4976752;28;20050;-85
2023/05/06 04:59:16;;;;;;;14.03;10.07;;;11.40;99.90;;;;;;4977460;28;20055;-85
2023/05/06 05:01:42;;;;;;;13.23;10.47;;;11.40;99.90;;;;;;4976305;28;20387;-85
2023/05/06 05:04:08;;;;;;;15.77;10.73;;;11.40;99.90;;;;;;4976000;28;20050;-86
2023/05/06 05:06:33;;;;;;;14.10;10.80;;;11.40;99.90;;;;;;4976075;28;20113;-87
2023/05/06 05:08:59;;;;;;;15.30;11.53;;;11.40;99.90;;;;;;4959998;28;20043;-85
2023/05/06 05:11:25;;;;;;;15.37;10.90;;;11.40;99.90;;;;;;4977611;28;20525;-82
2023/05/06 05:13:51;;;;;;;22.70;12.63;;;11.40;99.90;;;;;;4977164;28;20097;-81
2023/05/06 05:16:17;;;;;;;19.23;11.80;;;11.50;99.90;;;;;;4977064;28;20137;-81
2023/05/06 05:18:42;;;;;;;19.07;12.30;;;11.50;99.90;;;;;;4977093;28;20051;-81
2023/05/06 05:21:08;;;;;;;18.23;12.03;;;11.50;99.90;;;;;;4977418;28;20108;-81
2023/05/06 05:23:34;;;;;;;19.27;12.03;;;11.50;99.90;;;;;;4977423;28;20043;-80
2023/05/06 05:26:00;;;;;;;19.57;12.93;;;11.40;99.90;;;;;;4976922;28;20129;-80
2023/05/06 05:28:26;;;;;;;23.17;14.50;;;11.40;99.90;;;;;;4976838;28;20201;-81
2023/05/06 05:30:52;;;;;;;18.63;13.30;;;11.40;99.90;;;;;;4976807;28;20278;-82
2023/05/06 05:33:18;;;;;;;22.20;13.97;;;11.50;99.90;;;;;;4977227;28;20297;-82
2023/05/06 05:35:44;;;;;;;25.77;15.10;;;11.50;99.90;;;;;;4959917;28;20078;-81
2023/05/06 05:38:11;;;;;;;25.20;15.10;;;11.50;99.90;;;;;;4976874;28;20069;-81
2023/05/06 05:40:37;;;;;;;28.93;15.73;;;11.50;99.90;;;;;;4976605;28;20101;-81
2023/05/06 05:43:03;;;;;;;30.37;16.93;;;11.50;99.90;;;;;;4975463;28;20326;-82
2023/05/06 05:45:28;;;;;;;25.77;16.23;;;11.60;99.90;;;;;;4976540;28;20051;-83
2023/05/06 05:47:54;;;;;;;25.43;14.70;;;11.60;99.90;;;;;;4975869;28;20467;-82
2023/05/06 05:50:20;;;;;;;22.43;15.23;;;11.60;99.90;;;;;;4976799;28;20133;-83
2023/05/06 05:52:46;;;;;;;26.93;15.87;;;11.60;99.90;;;;;;4976514;28;20089;-84
2023/05/06 05:55:12;;;;;;;24.00;13.90;;;11.60;99.90;;;;;;4976682;28;20069;-84
2023/05/06 05:57:37;;;;;;;28.20;16.33;;;11.60;99.90;;;;;;4975116;28;20518;-85
2023/05/06 06:00:04;;;;;;;27.67;16.73;;;11.60;99.90;;;;;;4976336;28;20050;-85
2023/05/06 06:02:30;;;;;;;26.47;16.23;;;11.70;99.90;;;;;;4975090;28;20058;-85
2023/05/06 06:04:56;;;;;;;31.80;17.53;;;11.70;99.90;;;;;;4974995;28;20306;-86
2023/05/06 06:07:22;;;;;;;24.93;16.13;;;11.80;99.90;;;;;;4976099;28;20104;-86
2023/05/06 06:09:47;;;;;;;23.53;15.83;;;11.80;99.90;;;;;;4976152;28;20047;-86
2023/05/06 06:12:14;;;;;;;23.60;14.80;;;11.90;99.90;;;;;;4976611;28;20117;-84
2023/05/06 06:14:40;;;;;;;23.40;14.93;;;11.90;99.90;;;;;;4976874;28;20058;-85
2023/05/06 06:17:05;;;;;;;24.97;15.73;;;11.90;99.90;;;;;;4975878;28;20622;-85
2023/05/06 06:19:31;;;;;;;21.33;14.80;;;11.90;99.90;;;;;;4975701;28;20046;-85
2023/05/06 06:21:57;;;;;;;22.77;15.70;;;12.00;99.90;;;;;;4975958;28;20130;-85
2023/05/06 06:24:23;;;;;;;21.83;14.80;;;12.00;99.90;;;;;;4974703;28;20046;-85
2023/05/06 06:26:49;;;;;;;22.93;14.70;;;12.10;99.90;;;;;;4975785;28;20058;-85
2023/05/06 06:29:15;;;;;;;26.60;15.93;;;12.10;99.90;;;;;;4976075;28;20274;-83
2023/05/06 06:31:41;;;;;;;20.50;14.50;;;12.10;99.90;;;;;;4974614;28;20082;-85
2023/05/06 06:34:07;;;;;;;23.57;14.30;;;12.20;99.90;;;;;;4974537;28;20479;-84
2023/05/06 06:36:33;;;;;;;21.60;15.20;;;12.20;99.90;;;;;;4974360;28;20076;-83
2023/05/06 06:38:59;;;;;;;21.17;14.37;;;12.20;99.90;;;;;;4974616;28;20292;-83
2023/05/06 06:41:26;;;;;;;20.33;14.43;;;12.30;99.90;;;;;;4975772;28;20046;-84
2023/05/06 06:43:52;;;;;;;26.77;16.00;;;12.30;99.90;;;;;;4975464;28;20122;-84
2023/05/06 06:46:18;;;;;;;24.33;15.47;;;12.50;99.90;;;;;;4974577;28;20325;-83
2023/05/06 06:48:44;;;;;;;22.13;15.23;;;12.60;99.90;;;;;;4975959;28;20042;-83
2023/05/06 06:51:10;;;;;;;20.73;15.23;;;12.80;99.90;;;;;;4958378;28;20137;-84
2023/05/06 06:53:35;;;;;;;21.33;14.93;;;13.00;99.90;;;;;;4974067;28;20130;-83
2023/05/06 06:56:01;;;;;;;22.50;14.53;;;13.30;99.90;;;;;;4975184;28;20096;-83
2023/05/06 06:58:27;;;;;;;22.27;16.27;;;13.70;99.90;;;;;;4974211;28;20057;-83
2023/05/06 07:00:52;;;;;;;19.30;13.67;;;13.90;99.90;;;;;;4975231;28;20117;-83
2023/05/06 07:03:18;;;;;;;19.70;13.57;;;14.00;99.90;;;;;;4974142;28;20089;-83
2023/05/06 07:05:44;;;;;;;16.07;12.17;;;14.20;99.90;;;;;;4973945;28;20062;-83
2023/05/06 07:08:10;;;;;;;15.23;12.20;;;14.30;99.90;;;;;;4974199;28;20487;-83
2023/05/06 07:10:36;;;;;;;22.37;16.60;;;14.40;99.90;;;;;;4958057;28;20377;-83
2023/05/06 07:13:02;;;;;;;16.70;13.10;;;15.20;99.90;;;;;;4975016;28;20055;-82
2023/05/06 07:15:28;;;;;;;15.60;13.00;;;16.30;99.90;;;;;;4958008;28;20360;-82
2023/05/06 07:17:54;;;;;;;14.77;12.13;;;17.40;99.90;;;;;;4974343;28;20805;-82
2023/05/06 07:20:20;;;;;;;10.80;9.43;;;18.80;99.90;;;;;;4974973;28;20050;-84
2023/05/06 07:22:45;;;;;;;10.53;8.73;;;19.90;99.90;;;;;;4975114;28;20051;-83
2023/05/06 07:25:11;;;;;;;9.63;8.00;;;21.00;99.90;;;;;;4975303;28;20193;-81
2023/05/06 07:27:37;;;;;;;9.53;8.53;;;21.90;99.90;;;;;;4975335;28;20226;-82
2023/05/06 07:30:03;;;;;;;9.40;7.70;;;22.70;99.90;;;;;;4973927;28;20043;-81
2023/05/06 07:32:29;;;;;;;9.90;7.90;;;23.20;99.90;;;;;;4973448;28;20376;-81
2023/05/06 07:34:54;;;;;;;9.33;7.80;;;23.80;99.90;;;;;;4958241;28;20152;-80
2023/05/06 07:37:20;;;;;;;8.60;7.70;;;24.20;99.90;;;;;;4975001;28;20141;-78
2023/05/06 07:39:46;;;;;;;8.83;7.50;;;24.60;99.90;;;;;;4974659;28;20058;-79
2023/05/06 07:42:12;;;;;;;8.17;7.20;;;24.90;99.90;;;;;;4974743;28;20042;-77
2023/05/06 07:44:38;;;;;;;9.40;7.43;;;25.30;99.90;;;;;;4973347;28;20494;-77
2023/05/06 07:47:04;;;;;;;6.77;5.63;;;25.50;99.90;;;;;;4974916;28;20069;-77
2023/05/06 07:49:32;;;;;;;8.30;6.60;;;25.90;99.90;;;;;;4974496;28;20490;-77
2023/05/06 07:51:58;;;;;;;7.37;5.67;;;26.10;99.90;;;;;;4974767;28;20121;-78
2023/05/06 07:54:23;;;;;;;8.00;5.80;;;26.00;99.90;;;;;;4974579;28;20411;-79
2023/05/06 07:56:49;;;;;;;7.40;5.87;;;26.20;99.90;;;;;;4974517;28;20051;-79
2023/05/06 07:59:15;;;;;;;8.80;5.90;;;26.10;99.90;;;;;;4974542;28;20129;-78
2023/05/06 08:01:41;;;;;;;7.67;6.10;;;26.10;99.90;;;;;;4974508;28;20050;-78
2023/05/06 08:04:06;;;;;;;7.40;6.23;;;26.20;99.90;;;;;;4974659;28;20443;-79
2023/05/06 08:06:32;;;;;;;7.30;5.80;;;26.00;99.90;;;;;;4974534;28;20380;-79
2023/05/06 08:08:59;;;;;;;8.13;5.83;;;25.90;99.90;;;;;;4974464;28;20178;-79
2023/05/06 08:11:25;;;;;;;7.43;5.90;;;25.70;99.90;;;;;;4974409;28;20051;-80
2023/05/06 08:13:50;;;;;;;7.87;6.60;;;25.40;99.90;;;;;;4974467;28;20053;-78
2023/05/06 08:16:16;;;;;;;9.43;6.83;;;25.10;99.90;;;;;;4974920;28;20055;-78
2023/05/06 08:18:42;;;;;;;8.67;6.70;;;24.00;99.90;;;;;;4974347;28;20049;-77
2023/05/06 08:21:08;;;;;;;8.80;7.40;;;23.40;99.90;;;;;;4974393;28;20083;-77
2023/05/06 08:23:34;;;;;;;12.90;7.53;;;22.60;99.90;;;;;;4974216;28;20507;-77
2023/05/06 08:26:00;;;;;;;9.20;7.30;;;21.90;99.90;;;;;;4976069;28;20137;-78
2023/05/06 08:28:28;;;;;;;9.17;7.10;;;21.30;99.90;;;;;;4977867;28;20148;-78
2023/05/06 08:30:54;;;;;;;8.83;7.77;;;21.00;99.90;;;;;;4978639;28;20073;-78
2023/05/06 08:33:20;;;;;;;9.47;7.00;;;21.00;99.90;;;;;;4977871;28;20185;-79
2023/05/06 08:35:45;;;;;;;8.07;7.00;;;20.80;99.90;;;;;;4977839;28;20078;-78
2023/05/06 08:38:11;;;;;;;11.07;6.87;;;20.60;99.90;;;;;;4978113;28;20059;-78
2023/05/06 08:40:48;;;;;;;9.73;7.07;;;20.30;99.90;;;;;;4978238;28;20483;-79
2023/05/06 08:43:14;;;;;;;8.90;6.97;;;20.10;99.90;;;;;;4978184;28;20109;-80
2023/05/06 08:45:41;;;;;;;9.07;7.30;;;20.00;99.90;;;;;;4976453;28;20138;-79
2023/05/06 08:48:07;;;;;;;9.63;7.67;;;19.80;99.90;;;;;;4976638;28;20059;-78
2023/05/06 08:50:37;;;;;;;8.27;6.73;;;19.80;99.90;;;;;;4976492;28;20053;-79
2023/05/06 08:53:03;;;;;;;9.37;7.63;;;19.70;99.90;;;;;;4977497;28;20053;-75
2023/05/06 08:55:31;;;;;;;10.50;7.80;;;19.60;99.90;;;;;;4977314;28;20121;-80
2023/05/06 08:57:57;;;;;;;16.60;7.60;;;19.60;99.90;;;;;;4977960;28;20212;-81
2023/05/06 09:00:23;;;;;;;9.90;6.87;;;19.80;99.90;;;;;;4977245;28;20047;-82
2023/05/06 09:02:49;;;;;;;10.50;8.07;;;19.90;99.90;;;;;;4976586;28;20051;-79
2023/05/06 09:05:15;;;;;;;11.63;8.00;;;19.80;99.90;;;;;;4960089;28;20051;-79
2023/05/06 09:07:40;;;;;;;10.20;7.93;;;19.80;99.90;;;;;;4977775;28;20399;-80
2023/05/06 09:10:12;;;;;;;10.50;8.10;;;19.70;99.90;;;;;;4977059;28;20450;-80
2023/05/06 09:12:38;;;;;;;10.43;7.60;;;19.60;99.90;;;;;;4976339;28;20053;-79
2023/05/06 09:15:04;;;;;;;9.07;7.67;;;19.50;99.90;;;;;;4977441;28;20042;-80
2023/05/06 09:17:31;;;;;;;11.37;7.63;;;19.60;99.90;;;;;;4977140;28;20050;-82
2023/05/06 09:19:57;;;;;;;11.40;7.73;;;19.60;99.90;;;;;;4976331;28;20062;-81
2023/05/06 09:22:28;;;;;;;11.70;7.60;;;19.70;99.90;;;;;;4975597;28;20043;-80
2023/05/06 09:24:57;;;;;;;9.87;7.47;;;19.70;99.90;;;;;;4976992;28;20106;-81
2023/05/06 09:27:30;;;;;;;8.10;6.97;;;19.70;99.90;;;;;;4977209;28;20042;-82
2023/05/06 09:30:06;;;;;;;10.87;7.50;;;19.70;99.90;;;;;;4960248;28;20475;-83
2023/05/06 09:32:32;;;;;;;9.73;7.40;;;19.80;99.90;;;;;;4976596;28;20483;-84
2023/05/06 09:34:58;;;;;;;9.60;7.60;;;19.90;99.90;;;;;;4976276;28;20062;-87
2023/05/06 09:37:25;;;;;;;10.60;8.07;;;19.90;99.90;;;;;;4975477;28;20054;-87
2023/05/06 09:39:54;;;;;;;10.80;8.17;;;19.90;99.90;;;;;;4976580;28;20059;-84
2023/05/06 09:42:25;;;;;;;11.87;9.13;;;20.00;99.90;;;;;;4976513;28;20105;-90
2023/05/06 09:44:58;;;;;;;11.17;8.10;;;20.00;99.90;;;;;;4975183;28;20042;-89
2023/05/06 09:47:26;;;;;;;12.13;9.05;;;19.90;99.90;;;;;;4977282;28;20117;-87
2023/05/06 09:49:57;;;;;;;9.20;7.70;;;19.90;99.90;;;;;;4976323;28;20129;-86
2023/05/06 09:52:22;;;;;;;13.23;8.30;;;19.80;99.90;;;;;;4976200;28;20043;-87
2023/05/06 09:54:50;;;;;;;12.27;8.57;;;19.70;99.90;;;;;;4976428;28;20043;-87
2023/05/06 09:57:17;;;;;;;11.03;8.30;;;19.70;99.90;;;;;;4977007;28;20105;-84
2023/05/06 09:59:43;;;;;;;12.10;8.93;;;19.60;99.90;;;;;;4976203;28;20129;-84
2023/05/06 10:02:12;;;;;;;11.17;7.53;;;19.70;99.90;;;;;;4976089;28;20487;-84
2023/05/06 10:04:40;;;;;;;11.87;8.10;;;19.80;99.90;;;;;;4976216;28;20075;-84
2023/05/06 10:07:11;;;;;;;11.40;8.50;;;19.80;99.90;;;;;;4976501;28;20047;-83
2023/05/06 10:09:39;;;;;;;10.60;8.70;;;19.90;99.90;;;;;;4976135;28;20117;-83
2023/05/06 10:12:09;;;;;;;15.30;8.73;;;19.90;99.90;;;;;;4976099;28;20050;-85
2023/05/06 10:14:36;;;;;;;11.60;8.10;;;19.90;99.90;;;;;;4976413;28;20146;-84
2023/05/06 10:17:09;;;;;;;12.57;7.00;;;19.90;99.90;;;;;;4975749;28;20047;-83
2023/05/06 10:19:38;;;;;;;11.33;8.30;;;19.90;99.90;;;;;;4975778;28;20483;-83
2023/05/06 10:22:20;;;;;;;11.13;7.47;;;19.90;99.90;;;;;;4976413;28;20042;-84
2023/05/06 10:24:54;;;;;;;10.70;8.03;;;20.00;99.90;;;;;;4976166;28;20047;-82
2023/05/06 10:27:23;;;;;;;12.33;7.30;;;20.10;99.90;;;;;;4975782;28;20495;-82
2023/05/06 10:29:57;;;;;;;9.83;6.90;;;20.10;99.90;;;;;;4975557;28;20282;-83
2023/05/06 10:32:25;;;;;;;14.97;6.87;;;20.00;99.90;;;;;;4975592;28;20101;-82
2023/05/06 10:34:54;;;;;;;9.77;7.00;;;20.00;99.90;;;;;;4975392;28;20047;-80
2023/05/06 10:37:27;;;;;;;9.90;7.07;;;19.80;99.90;;;;;;4975203;28;20094;-79
2023/05/06 10:39:55;;;;;;;11.03;6.93;;;19.70;99.90;;;;;;4975911;28;20053;-80
2023/05/06 10:42:27;;;;;;;10.60;6.97;;;19.60;99.90;;;;;;4975324;28;20058;-81
2023/05/06 10:44:57;;;;;;;11.43;7.60;;;19.50;99.90;;;;;;4975286;28;20086;-80
2023/05/06 10:47:23;;;;;;;10.37;6.83;;;19.40;99.90;;;;;;4975815;28;20117;-79
2023/05/06 10:50:18;;;;;;;10.63;6.73;;;19.30;99.90;;;;;;4975130;28;20054;-80
2023/05/06 10:52:45;;;;;;;9.52;7.00;;;19.20;99.90;;;;;;4975239;28;20055;-84
2023/05/06 10:55:43;;;;;;;11.17;7.10;;;19.10;99.90;;;;;;4975187;28;20046;-80
2023/05/06 10:58:09;;;;;;;15.90;10.43;;;19.00;99.90;;;;;;4963901;28;20062;-80
2023/05/06 11:00:34;;;;;;;18.50;11.07;;;18.80;99.90;;;;;;4975366;28;20387;-77
2023/05/06 11:03:03;;;;;;;14.73;10.67;;;18.70;99.90;;;;;;4975509;28;20498;-80
2023/05/06 11:05:29;;;;;;;12.67;9.60;;;18.50;99.90;;;;;;4975396;28;20051;-80
2023/05/06 11:08:09;;;;;;;17.00;10.93;;;18.30;99.90;;;;;;4974668;28;20149;-78
2023/05/06 11:10:35;;;;;;;14.00;9.93;;;18.20;99.90;;;;;;4974906;28;20059;-79
2023/05/06 11:13:25;;;;;;;14.17;10.93;;;18.10;99.90;;;;;;4974347;28;20391;-79
2023/05/06 11:15:51;;;;;;;13.03;10.73;;;17.90;99.90;;;;;;4974876;28;20052;-80
2023/05/06 11:18:30;;;;;;;16.00;10.87;;;17.80;99.90;;;;;;4975189;28;20061;-84
2023/05/06 11:20:59;;;;;;;14.13;10.63;;;17.70;99.90;;;;;;4975315;28;20108;-82
2023/05/06 11:23:51;;;;;;;15.77;9.70;;;17.70;99.90;;;;;;4975382;28;20050;-81
2023/05/06 11:26:17;;;;;;;10.50;7.37;;;17.60;99.90;;;;;;4974735;28;20055;-81
2023/05/06 11:28:45;;;;;;;10.47;7.27;;;17.60;99.90;;;;;;4974654;28;20086;-75
2023/05/06 11:31:12;;;;;;;10.20;6.67;;;17.50;99.90;;;;;;4973434;28;20467;-79
2023/05/06 11:33:45;;;;;;;11.03;6.97;;;17.40;99.90;;;;;;4974177;28;20051;-78
2023/05/06 11:36:15;;;;;;;8.83;6.47;;;17.40;99.90;;;;;;4975284;28;20050;-81
2023/05/06 11:38:58;;;;;;;10.33;6.83;;;17.30;99.90;;;;;;4974405;28;20106;-82
2023/05/06 11:41:24;;;;;;;9.63;6.90;;;17.20;99.90;;;;;;4975001;28;20395;-81
2023/05/06 11:43:51;;;;;;;10.57;6.73;;;17.10;99.90;;;;;;4974447;28;20046;-81
2023/05/06 11:46:18;;;;;;;10.50;6.33;;;16.90;99.90;;;;;;4974630;28;20178;-79
2023/05/06 11:48:44;;;;;;;8.20;5.40;;;16.90;99.90;;;;;;4974913;28;20050;-77
2023/05/06 11:51:10;;;;;;;8.53;4.77;;;16.80;99.90;;;;;;4973486;28;20062;-77
2023/05/06 11:53:36;;;;;;;8.90;4.87;;;16.80;99.90;;;;;;4974504;28;20051;-83
2023/05/06 11:56:05;;;;;;;7.63;4.57;;;16.80;99.90;;;;;;4974461;28;20114;-82
2023/05/06 11:58:31;;;;;;;6.87;4.10;;;16.80;99.90;;;;;;4974475;28;20073;-80
2023/05/06 12:00:59;;;;;;;8.20;4.00;;;16.90;99.90;;;;;;4976212;28;20051;-80
2023/05/06 12:03:27;;;;;;;7.60;4.30;;;17.00;99.90;;;;;;4978227;28;20057;-80
2023/05/06 12:05:54;;;;;;;7.50;4.47;;;17.10;99.90;;;;;;4978219;28;20090;-83
2023/05/06 12:08:33;;;;;;;6.60;3.53;;;17.20;99.90;;;;;;4978349;28;20089;-75
2023/05/06 12:11:05;;;;;;;6.50;2.40;;;17.20;99.90;;;;;;4979028;28;20391;-82
2023/05/06 12:13:31;;;;;;;7.37;2.43;;;17.20;99.90;;;;;;4978165;28;20050;-78
2023/05/06 12:15:58;;;;;;;5.17;2.20;;;17.20;99.90;;;;;;4977934;28;20055;-78
2023/05/06 12:18:25;;;;;;;5.97;2.63;;;17.20;99.90;;;;;;4977935;28;20117;-78
2023/05/06 12:20:55;;;;;;;5.50;2.20;;;17.20;99.90;;;;;;4978872;28;20179;-78
2023/05/06 12:23:21;;;;;;;6.87;2.63;;;17.10;99.90;;;;;;4977958;28;20047;-79
2023/05/06 12:26:05;;;;;;;4.70;2.30;;;17.10;99.90;;;;;;4978490;28;20058;-78
2023/05/06 12:28:32;;;;;;;5.07;2.50;;;17.10;99.90;;;;;;4977661;28;20383;-79
2023/05/06 12:30:58;;;;;;;6.00;3.30;;;17.10;99.90;;;;;;4977934;28;20278;-79
2023/05/06 12:33:24;;;;;;;7.13;4.00;;;17.10;99.90;;;;;;4977827;28;20058;-79
2023/05/06 12:35:55;;;;;;;5.33;2.47;;;17.10;99.90;;;;;;4978638;28;20170;-79
2023/05/06 12:38:21;;;;;;;5.10;2.00;;;17.20;99.90;;;;;;4977523;28;20047;-78